sensor_id;sensor_type;location;lat;lon;timestamp;P1;durP1;ratioP1;P2;durP2;ratioP2
7179;SDS011;3631;42.152;24.756;2024-03-23T00:55:59;21.23;;;13.33;;
7179;SDS011;3631;42.152;24.756;2024-03-23T00:58:26;22.70;;;14.13;;
7179;SDS011;3631;42.152;24.756;2024-03-23T01:00:52;22.13;;;13.27;;
7179;SDS011;3631;42.152;24.756;2024-03-23T01:03:19;25.77;;;13.63;;
7179;SDS011;3631;42.152;24.756;2024-03-23T01:05:45;22.40;;;12.97;;
7179;SDS011;3631;42.152;24.756;2024-03-23T01:08:15;27.70;;;14.47;;
7179;SDS011;3631;42.152;24.756;2024-03-23T01:10:41;24.87;;;14.20;;
7179;SDS011;3631;42.152;24.756;2024-03-23T01:13:08;22.93;;;12.93;;
7179;SDS011;3631;42.152;24.756;2024-03-23T01:15:34;24.97;;;13.63;;
7179;SDS011;3631;42.152;24.756;2024-03-23T01:18:01;23.27;;;13.27;;
7179;SDS011;3631;42.152;24.756;2024-03-23T01:20:27;25.60;;;12.60;;
7179;SDS011;3631;42.152;24.756;2024-03-23T01:22:54;26.17;;;11.80;;
7179;SDS011;3631;42.152;24.756;2024-03-23T01:25:21;17.13;;;10.30;;
7179;SDS011;3631;42.152;24.756;2024-03-23T01:27:48;22.33;;;10.57;;
7179;SDS011;3631;42.152;24.756;2024-03-23T01:30:14;20.17;;;9.83;;
7179;SDS011;3631;42.152;24.756;2024-03-23T01:32:41;16.20;;;10.20;;
7179;SDS011;3631;42.152;24.756;2024-03-23T01:35:08;16.73;;;9.30;;
7179;SDS011;3631;42.152;24.756;2024-03-23T01:37:35;17.63;;;10.07;;
7179;SDS011;3631;42.152;24.756;2024-03-23T01:40:01;13.87;;;9.10;;
7179;SDS011;3631;42.152;24.756;2024-03-23T01:42:30;12.50;;;8.37;;
7179;SDS011;3631;42.152;24.756;2024-03-23T01:44:56;13.40;;;9.10;;
7179;SDS011;3631;42.152;24.756;2024-03-23T01:47:23;12.17;;;9.13;;
7179;SDS011;3631;42.152;24.756;2024-03-23T01:49:49;12.53;;;9.67;;
7179;SDS011;3631;42.152;24.756;2024-03-23T01:52:16;16.63;;;9.80;;
7179;SDS011;3631;42.152;24.756;2024-03-23T01:54:42;13.73;;;9.57;;
7179;SDS011;3631;42.152;24.756;2024-03-23T01:57:10;15.33;;;9.47;;
7179;SDS011;3631;42.152;24.756;2024-03-23T01:59:39;16.57;;;10.30;;
7179;SDS011;3631;42.152;24.756;2024-03-23T02:02:06;21.33;;;11.47;;
7179;SDS011;3631;42.152;24.756;2024-03-23T02:04:32;15.83;;;10.47;;
7179;SDS011;3631;42.152;24.756;2024-03-23T02:06:59;16.57;;;10.80;;
7179;SDS011;3631;42.152;24.756;2024-03-23T02:09:25;20.30;;;10.73;;
7179;SDS011;3631;42.152;24.756;2024-03-23T02:11:52;15.40;;;10.00;;
7179;SDS011;3631;42.152;24.756;2024-03-23T02:14:18;15.93;;;10.10;;
7179;SDS011;3631;42.152;24.756;2024-03-23T02:16:46;18.20;;;10.20;;
7179;SDS011;3631;42.152;24.756;2024-03-23T02:19:12;20.53;;;11.27;;
7179;SDS011;3631;42.152;24.756;2024-03-23T02:21:39;18.27;;;10.13;;
7179;SDS011;3631;42.152;24.756;2024-03-23T02:24:06;16.33;;;9.73;;
7179;SDS011;3631;42.152;24.756;2024-03-23T02:26:33;19.73;;;10.27;;
7179;SDS011;3631;42.152;24.756;2024-03-23T02:28:59;15.13;;;9.67;;
7179;SDS011;3631;42.152;24.756;2024-03-23T02:31:26;14.43;;;10.47;;
7179;SDS011;3631;42.152;24.756;2024-03-23T02:33:52;20.30;;;10.40;;
7179;SDS011;3631;42.152;24.756;2024-03-23T02:36:19;21.77;;;11.40;;
7179;SDS011;3631;42.152;24.756;2024-03-23T02:38:46;24.50;;;12.47;;
7179;SDS011;3631;42.152;24.756;2024-03-23T02:41:14;24.07;;;11.77;;
7179;SDS011;3631;42.152;24.756;2024-03-23T02:43:48;25.00;;;11.40;;
7179;SDS011;3631;42.152;24.756;2024-03-23T02:46:15;18.33;;;10.73;;
7179;SDS011;3631;42.152;24.756;2024-03-23T02:48:41;18.43;;;10.80;;
7179;SDS011;3631;42.152;24.756;2024-03-23T02:51:08;17.20;;;10.67;;
7179;SDS011;3631;42.152;24.756;2024-03-23T02:53:34;19.63;;;11.70;;
7179;SDS011;3631;42.152;24.756;2024-03-23T02:56:01;18.40;;;11.43;;
7179;SDS011;3631;42.152;24.756;2024-03-23T02:58:28;18.13;;;10.67;;
7179;SDS011;3631;42.152;24.756;2024-03-23T03:00:55;19.07;;;11.30;;
7179;SDS011;3631;42.152;24.756;2024-03-23T03:03:21;18.67;;;10.97;;
7179;SDS011;3631;42.152;24.756;2024-03-23T03:05:51;22.40;;;12.57;;
7179;SDS011;3631;42.152;24.756;2024-03-23T03:08:20;31.33;;;13.90;;
7179;SDS011;3631;42.152;24.756;2024-03-23T03:10:47;24.10;;;13.83;;
7179;SDS011;3631;42.152;24.756;2024-03-23T03:13:13;25.77;;;14.27;;
7179;SDS011;3631;42.152;24.756;2024-03-23T03:15:42;21.30;;;13.17;;
7179;SDS011;3631;42.152;24.756;2024-03-23T03:18:08;22.77;;;12.83;;
7179;SDS011;3631;42.152;24.756;2024-03-23T03:20:37;19.83;;;12.43;;
7179;SDS011;3631;42.152;24.756;2024-03-23T03:23:04;17.63;;;11.97;;
7179;SDS011;3631;42.152;24.756;2024-03-23T03:25:31;21.70;;;12.37;;
7179;SDS011;3631;42.152;24.756;2024-03-23T03:27:57;19.93;;;13.20;;
7179;SDS011;3631;42.152;24.756;2024-03-23T03:30:24;22.90;;;13.17;;
7179;SDS011;3631;42.152;24.756;2024-03-23T03:32:53;18.97;;;12.53;;
7179;SDS011;3631;42.152;24.756;2024-03-23T03:35:20;20.13;;;13.63;;
7179;SDS011;3631;42.152;24.756;2024-03-23T03:37:46;18.87;;;12.63;;
7179;SDS011;3631;42.152;24.756;2024-03-23T03:40:13;19.93;;;12.43;;
7179;SDS011;3631;42.152;24.756;2024-03-23T03:42:40;22.00;;;13.30;;
7179;SDS011;3631;42.152;24.756;2024-03-23T03:45:07;23.53;;;12.80;;
7179;SDS011;3631;42.152;24.756;2024-03-23T03:47:33;19.70;;;12.90;;
7179;SDS011;3631;42.152;24.756;2024-03-23T03:50:01;23.37;;;12.73;;
7179;SDS011;3631;42.152;24.756;2024-03-23T03:52:27;23.80;;;12.90;;
7179;SDS011;3631;42.152;24.756;2024-03-23T03:55:00;18.60;;;13.03;;
7179;SDS011;3631;42.152;24.756;2024-03-23T03:57:27;19.63;;;13.07;;
7179;SDS011;3631;42.152;24.756;2024-03-23T03:59:54;19.53;;;13.47;;
7179;SDS011;3631;42.152;24.756;2024-03-23T04:02:20;23.33;;;12.43;;
7179;SDS011;3631;42.152;24.756;2024-03-23T04:04:47;22.53;;;12.93;;
7179;SDS011;3631;42.152;24.756;2024-03-23T04:07:14;23.40;;;13.57;;
7179;SDS011;3631;42.152;24.756;2024-03-23T04:09:42;20.27;;;12.63;;
7179;SDS011;3631;42.152;24.756;2024-03-23T04:12:08;22.93;;;13.83;;
7179;SDS011;3631;42.152;24.756;2024-03-23T04:14:35;17.90;;;11.60;;
7179;SDS011;3631;42.152;24.756;2024-03-23T04:17:01;18.13;;;11.23;;
7179;SDS011;3631;42.152;24.756;2024-03-23T04:19:28;18.47;;;11.20;;
7179;SDS011;3631;42.152;24.756;2024-03-23T04:21:54;14.83;;;9.63;;
7179;SDS011;3631;42.152;24.756;2024-03-23T04:24:23;13.60;;;9.77;;
7179;SDS011;3631;42.152;24.756;2024-03-23T04:26:50;12.67;;;9.50;;
7179;SDS011;3631;42.152;24.756;2024-03-23T04:29:17;11.77;;;9.23;;
7179;SDS011;3631;42.152;24.756;2024-03-23T04:31:43;12.57;;;9.13;;
7179;SDS011;3631;42.152;24.756;2024-03-23T04:34:10;14.47;;;9.60;;
7179;SDS011;3631;42.152;24.756;2024-03-23T04:36:35;13.47;;;9.27;;
7179;SDS011;3631;42.152;24.756;2024-03-23T04:39:02;14.07;;;9.83;;
7179;SDS011;3631;42.152;24.756;2024-03-23T04:41:31;15.17;;;9.70;;
7179;SDS011;3631;42.152;24.756;2024-03-23T04:43:58;14.00;;;9.13;;
7179;SDS011;3631;42.152;24.756;2024-03-23T04:46:24;15.23;;;8.93;;
7179;SDS011;3631;42.152;24.756;2024-03-23T04:48:51;16.97;;;10.50;;
7179;SDS011;3631;42.152;24.756;2024-03-23T04:51:21;12.40;;;8.73;;
7179;SDS011;3631;42.152;24.756;2024-03-23T04:53:49;13.63;;;8.60;;
7179;SDS011;3631;42.152;24.756;2024-03-23T04:56:16;16.43;;;9.67;;
7179;SDS011;3631;42.152;24.756;2024-03-23T04:58:45;10.83;;;8.43;;
7179;SDS011;3631;42.152;24.756;2024-03-23T05:01:11;16.90;;;9.20;;
7179;SDS011;3631;42.152;24.756;2024-03-23T05:03:38;10.87;;;8.43;;
7179;SDS011;3631;42.152;24.756;2024-03-23T05:06:04;10.50;;;8.47;;
7179;SDS011;3631;42.152;24.756;2024-03-23T05:08:31;12.63;;;8.33;;
7179;SDS011;3631;42.152;24.756;2024-03-23T05:10:57;14.13;;;7.83;;
7179;SDS011;3631;42.152;24.756;2024-03-23T05:13:24;10.03;;;8.03;;
7179;SDS011;3631;42.152;24.756;2024-03-23T05:15:53;12.30;;;8.43;;
7179;SDS011;3631;42.152;24.756;2024-03-23T05:18:19;11.73;;;8.00;;
7179;SDS011;3631;42.152;24.756;2024-03-23T05:20:46;12.90;;;8.57;;
7179;SDS011;3631;42.152;24.756;2024-03-23T05:23:13;13.93;;;9.60;;
7179;SDS011;3631;42.152;24.756;2024-03-23T05:25:40;12.33;;;8.97;;
7179;SDS011;3631;42.152;24.756;2024-03-23T05:28:06;17.23;;;9.27;;
7179;SDS011;3631;42.152;24.756;2024-03-23T05:30:33;13.23;;;7.93;;
7179;SDS011;3631;42.152;24.756;2024-03-23T05:33:00;11.57;;;8.63;;
7179;SDS011;3631;42.152;24.756;2024-03-23T05:35:27;14.50;;;8.77;;
7179;SDS011;3631;42.152;24.756;2024-03-23T05:37:53;11.77;;;9.07;;
7179;SDS011;3631;42.152;24.756;2024-03-23T05:40:20;15.20;;;8.53;;
7179;SDS011;3631;42.152;24.756;2024-03-23T05:42:46;13.63;;;8.83;;
7179;SDS011;3631;42.152;24.756;2024-03-23T05:45:13;12.13;;;9.53;;
7179;SDS011;3631;42.152;24.756;2024-03-23T05:47:39;11.27;;;9.23;;
7179;SDS011;3631;42.152;24.756;2024-03-23T05:50:07;15.27;;;10.43;;
7179;SDS011;3631;42.152;24.756;2024-03-23T05:52:36;12.70;;;9.60;;
7179;SDS011;3631;42.152;24.756;2024-03-23T05:55:03;12.50;;;9.65;;
7179;SDS011;3631;42.152;24.756;2024-03-23T05:57:29;11.23;;;9.25;;
7179;SDS011;3631;42.152;24.756;2024-03-23T05:59:56;11.43;;;9.00;;
7179;SDS011;3631;42.152;24.756;2024-03-23T06:02:22;10.15;;;9.15;;
7179;SDS011;3631;42.152;24.756;2024-03-23T06:04:50;11.18;;;10.02;;
7179;SDS011;3631;42.152;24.756;2024-03-23T06:07:17;12.15;;;9.55;;
7179;SDS011;3631;42.152;24.756;2024-03-23T06:09:44;11.98;;;9.00;;
7179;SDS011;3631;42.152;24.756;2024-03-23T06:12:10;10.90;;;9.13;;
7179;SDS011;3631;42.152;24.756;2024-03-23T06:14:37;12.65;;;9.80;;
7179;SDS011;3631;42.152;24.756;2024-03-23T06:17:03;10.48;;;9.43;;
7179;SDS011;3631;42.152;24.756;2024-03-23T06:19:31;10.75;;;9.60;;
7179;SDS011;3631;42.152;24.756;2024-03-23T06:21:57;11.10;;;9.38;;
7179;SDS011;3631;42.152;24.756;2024-03-23T06:24:25;11.45;;;9.35;;
7179;SDS011;3631;42.152;24.756;2024-03-23T06:26:51;10.65;;;9.30;;
7179;SDS011;3631;42.152;24.756;2024-03-23T06:29:18;10.10;;;9.10;;
7179;SDS011;3631;42.152;24.756;2024-03-23T06:31:43;11.13;;;10.05;;
7179;SDS011;3631;42.152;24.756;2024-03-23T06:34:10;11.40;;;10.00;;
7179;SDS011;3631;42.152;24.756;2024-03-23T06:36:36;11.43;;;10.32;;
7179;SDS011;3631;42.152;24.756;2024-03-23T06:39:03;11.40;;;9.85;;
7179;SDS011;3631;42.152;24.756;2024-03-23T06:41:31;11.95;;;10.40;;
7179;SDS011;3631;42.152;24.756;2024-03-23T06:43:57;15.63;;;10.98;;
7179;SDS011;3631;42.152;24.756;2024-03-23T06:46:23;13.20;;;9.82;;
7179;SDS011;3631;42.152;24.756;2024-03-23T06:48:50;17.55;;;10.73;;
7179;SDS011;3631;42.152;24.756;2024-03-23T06:51:16;10.95;;;9.93;;
7179;SDS011;3631;42.152;24.756;2024-03-23T06:53:43;14.60;;;10.63;;
7179;SDS011;3631;42.152;24.756;2024-03-23T06:56:09;15.80;;;10.48;;
7179;SDS011;3631;42.152;24.756;2024-03-23T06:58:37;15.50;;;11.10;;
7179;SDS011;3631;42.152;24.756;2024-03-23T07:01:03;20.63;;;11.90;;
7179;SDS011;3631;42.152;24.756;2024-03-23T07:03:30;13.07;;;10.65;;
7179;SDS011;3631;42.152;24.756;2024-03-23T07:05:57;11.65;;;10.48;;
7179;SDS011;3631;42.152;24.756;2024-03-23T07:08:24;12.15;;;10.85;;
7179;SDS011;3631;42.152;24.756;2024-03-23T07:10:50;14.18;;;10.07;;
7179;SDS011;3631;42.152;24.756;2024-03-23T07:13:17;12.23;;;10.10;;
7179;SDS011;3631;42.152;24.756;2024-03-23T07:15:49;11.82;;;10.73;;
7179;SDS011;3631;42.152;24.756;2024-03-23T07:18:18;11.35;;;10.32;;
7179;SDS011;3631;42.152;24.756;2024-03-23T07:20:51;13.45;;;10.93;;
7179;SDS011;3631;42.152;24.756;2024-03-23T07:23:18;16.77;;;10.27;;
7179;SDS011;3631;42.152;24.756;2024-03-23T07:25:44;11.95;;;10.63;;
7179;SDS011;3631;42.152;24.756;2024-03-23T07:28:11;12.60;;;10.82;;
7179;SDS011;3631;42.152;24.756;2024-03-23T07:30:37;10.82;;;9.63;;
7179;SDS011;3631;42.152;24.756;2024-03-23T07:33:06;12.35;;;9.85;;
7179;SDS011;3631;42.152;24.756;2024-03-23T07:35:31;15.05;;;10.32;;
7179;SDS011;3631;42.152;24.756;2024-03-23T07:37:58;14.38;;;11.35;;
7179;SDS011;3631;42.152;24.756;2024-03-23T07:40:30;13.88;;;10.75;;
7179;SDS011;3631;42.152;24.756;2024-03-23T07:42:57;11.93;;;10.60;;
7179;SDS011;3631;42.152;24.756;2024-03-23T07:45:23;13.00;;;10.30;;
7179;SDS011;3631;42.152;24.756;2024-03-23T07:47:51;12.05;;;10.50;;
7179;SDS011;3631;42.152;24.756;2024-03-23T07:50:18;11.65;;;10.50;;
7179;SDS011;3631;42.152;24.756;2024-03-23T07:52:45;10.98;;;10.00;;
7179;SDS011;3631;42.152;24.756;2024-03-23T07:55:12;10.95;;;9.82;;
7179;SDS011;3631;42.152;24.756;2024-03-23T07:57:39;13.73;;;10.90;;
7179;SDS011;3631;42.152;24.756;2024-03-23T08:00:05;11.88;;;10.40;;
7179;SDS011;3631;42.152;24.756;2024-03-23T08:02:34;11.95;;;10.40;;
7179;SDS011;3631;42.152;24.756;2024-03-23T08:05:00;11.98;;;9.75;;
7179;SDS011;3631;42.152;24.756;2024-03-23T08:07:28;14.93;;;10.05;;
7179;SDS011;3631;42.152;24.756;2024-03-23T08:09:54;10.60;;;9.60;;
7179;SDS011;3631;42.152;24.756;2024-03-23T08:12:21;13.95;;;10.15;;
7179;SDS011;3631;42.152;24.756;2024-03-23T08:14:47;9.48;;;8.35;;
7179;SDS011;3631;42.152;24.756;2024-03-23T08:17:13;10.82;;;9.70;;
7179;SDS011;3631;42.152;24.756;2024-03-23T08:19:39;13.90;;;9.30;;
7179;SDS011;3631;42.152;24.756;2024-03-23T08:22:06;10.23;;;9.18;;
7179;SDS011;3631;42.152;24.756;2024-03-23T08:24:34;16.27;;;9.32;;
7179;SDS011;3631;42.152;24.756;2024-03-23T08:27:01;10.13;;;8.85;;
7179;SDS011;3631;42.152;24.756;2024-03-23T08:29:27;15.85;;;9.60;;
7179;SDS011;3631;42.152;24.756;2024-03-23T08:31:53;13.93;;;8.70;;
7179;SDS011;3631;42.152;24.756;2024-03-23T08:34:19;10.68;;;9.15;;
7179;SDS011;3631;42.152;24.756;2024-03-23T08:36:46;13.75;;;8.10;;
7179;SDS011;3631;42.152;24.756;2024-03-23T08:39:12;9.82;;;8.18;;
7179;SDS011;3631;42.152;24.756;2024-03-23T08:41:41;16.08;;;8.73;;
7179;SDS011;3631;42.152;24.756;2024-03-23T08:44:11;10.75;;;8.82;;
7179;SDS011;3631;42.152;24.756;2024-03-23T08:46:38;9.57;;;8.23;;
7179;SDS011;3631;42.152;24.756;2024-03-23T08:49:05;9.13;;;8.23;;
7179;SDS011;3631;42.152;24.756;2024-03-23T08:51:31;11.47;;;8.43;;
7179;SDS011;3631;42.152;24.756;2024-03-23T08:53:57;13.63;;;8.80;;
7179;SDS011;3631;42.152;24.756;2024-03-23T08:56:23;9.97;;;7.83;;
7179;SDS011;3631;42.152;24.756;2024-03-23T08:58:52;10.67;;;7.27;;
7179;SDS011;3631;42.152;24.756;2024-03-23T09:01:17;8.90;;;7.50;;
7179;SDS011;3631;42.152;24.756;2024-03-23T09:03:44;9.53;;;8.30;;
7179;SDS011;3631;42.152;24.756;2024-03-23T09:06:11;10.23;;;8.63;;
7179;SDS011;3631;42.152;24.756;2024-03-23T09:08:39;9.77;;;7.17;;
7179;SDS011;3631;42.152;24.756;2024-03-23T09:11:06;9.57;;;7.43;;
7179;SDS011;3631;42.152;24.756;2024-03-23T09:13:33;13.17;;;7.27;;
7179;SDS011;3631;42.152;24.756;2024-03-23T09:16:01;9.60;;;7.57;;
7179;SDS011;3631;42.152;24.756;2024-03-23T09:18:31;10.40;;;8.37;;
7179;SDS011;3631;42.152;24.756;2024-03-23T09:20:57;8.90;;;7.80;;
7179;SDS011;3631;42.152;24.756;2024-03-23T09:23:24;8.73;;;7.83;;
7179;SDS011;3631;42.152;24.756;2024-03-23T09:25:50;9.90;;;8.33;;
7179;SDS011;3631;42.152;24.756;2024-03-23T09:28:17;11.23;;;7.70;;
7179;SDS011;3631;42.152;24.756;2024-03-23T09:30:43;10.57;;;7.80;;
7179;SDS011;3631;42.152;24.756;2024-03-23T09:33:12;9.77;;;7.90;;
7179;SDS011;3631;42.152;24.756;2024-03-23T09:35:41;10.43;;;8.50;;
7179;SDS011;3631;42.152;24.756;2024-03-23T09:38:09;9.87;;;7.93;;
7179;SDS011;3631;42.152;24.756;2024-03-23T09:40:39;13.43;;;8.10;;
7179;SDS011;3631;42.152;24.756;2024-03-23T09:43:08;11.53;;;8.10;;
7179;SDS011;3631;42.152;24.756;2024-03-23T09:45:35;10.23;;;8.30;;
7179;SDS011;3631;42.152;24.756;2024-03-23T09:48:06;10.73;;;7.90;;
7179;SDS011;3631;42.152;24.756;2024-03-23T09:50:35;12.93;;;7.97;;
7179;SDS011;3631;42.152;24.756;2024-03-23T09:53:03;12.80;;;8.27;;
7179;SDS011;3631;42.152;24.756;2024-03-23T09:55:29;10.10;;;7.67;;
7179;SDS011;3631;42.152;24.756;2024-03-23T09:57:56;8.20;;;7.47;;
7179;SDS011;3631;42.152;24.756;2024-03-23T10:00:23;9.70;;;7.67;;
7179;SDS011;3631;42.152;24.756;2024-03-23T10:02:50;8.97;;;7.40;;
7179;SDS011;3631;42.152;24.756;2024-03-23T10:05:20;10.23;;;7.60;;
7179;SDS011;3631;42.152;24.756;2024-03-23T10:07:49;11.10;;;7.33;;
7179;SDS011;3631;42.152;24.756;2024-03-23T10:10:16;8.48;;;7.53;;
7179;SDS011;3631;42.152;24.756;2024-03-23T10:12:46;11.47;;;7.40;;
7179;SDS011;3631;42.152;24.756;2024-03-23T10:15:17;10.40;;;7.50;;
7179;SDS011;3631;42.152;24.756;2024-03-23T10:17:44;11.70;;;6.90;;
7179;SDS011;3631;42.152;24.756;2024-03-23T10:20:11;9.67;;;7.30;;
7179;SDS011;3631;42.152;24.756;2024-03-23T10:22:37;8.00;;;7.20;;
7179;SDS011;3631;42.152;24.756;2024-03-23T10:25:10;7.77;;;7.07;;
7179;SDS011;3631;42.152;24.756;2024-03-23T10:27:36;8.57;;;6.27;;
7179;SDS011;3631;42.152;24.756;2024-03-23T10:30:09;9.73;;;6.67;;
7179;SDS011;3631;42.152;24.756;2024-03-23T10:32:36;8.97;;;7.53;;
7179;SDS011;3631;42.152;24.756;2024-03-23T10:35:16;9.07;;;7.03;;
7179;SDS011;3631;42.152;24.756;2024-03-23T10:37:44;10.67;;;7.30;;
7179;SDS011;3631;42.152;24.756;2024-03-23T10:40:13;6.87;;;6.23;;
7179;SDS011;3631;42.152;24.756;2024-03-23T10:42:39;6.50;;;5.90;;
7179;SDS011;3631;42.152;24.756;2024-03-23T10:45:06;6.20;;;5.70;;
7179;SDS011;3631;42.152;24.756;2024-03-23T10:47:34;7.37;;;6.67;;
7179;SDS011;3631;42.152;24.756;2024-03-23T10:50:02;7.83;;;7.03;;
7179;SDS011;3631;42.152;24.756;2024-03-23T10:52:29;8.77;;;6.13;;
7179;SDS011;3631;42.152;24.756;2024-03-23T10:54:56;7.63;;;6.77;;
7179;SDS011;3631;42.152;24.756;2024-03-23T10:57:27;6.77;;;6.27;;
7179;SDS011;3631;42.152;24.756;2024-03-23T10:59:58;7.47;;;6.60;;
7179;SDS011;3631;42.152;24.756;2024-03-23T11:02:24;7.80;;;6.00;;
7179;SDS011;3631;42.152;24.756;2024-03-23T11:04:53;6.88;;;6.22;;
7179;SDS011;3631;42.152;24.756;2024-03-23T11:07:29;8.90;;;6.60;;
7179;SDS011;3631;42.152;24.756;2024-03-23T11:09:57;7.60;;;6.70;;
7179;SDS011;3631;42.152;24.756;2024-03-23T11:12:28;7.20;;;6.17;;
7179;SDS011;3631;42.152;24.756;2024-03-23T11:14:59;7.03;;;6.20;;
7179;SDS011;3631;42.152;24.756;2024-03-23T11:17:27;10.03;;;6.70;;
7179;SDS011;3631;42.152;24.756;2024-03-23T11:19:55;8.17;;;5.87;;
7179;SDS011;3631;42.152;24.756;2024-03-23T11:22:38;10.47;;;6.20;;
7179;SDS011;3631;42.152;24.756;2024-03-23T11:25:18;6.00;;;5.40;;
7179;SDS011;3631;42.152;24.756;2024-03-23T11:27:48;7.10;;;6.50;;
7179;SDS011;3631;42.152;24.756;2024-03-23T11:30:16;6.53;;;5.93;;
7179;SDS011;3631;42.152;24.756;2024-03-23T11:32:43;7.40;;;6.60;;
7179;SDS011;3631;42.152;24.756;2024-03-23T11:35:24;8.88;;;6.63;;
7179;SDS011;3631;42.152;24.756;2024-03-23T11:38:01;14.80;;;7.18;;
7179;SDS011;3631;42.152;24.756;2024-03-23T11:40:31;10.90;;;6.40;;
7179;SDS011;3631;42.152;24.756;2024-03-23T11:42:59;6.80;;;6.13;;
7179;SDS011;3631;42.152;24.756;2024-03-23T11:45:28;8.55;;;6.43;;
7179;SDS011;3631;42.152;24.756;2024-03-23T11:48:07;10.40;;;5.90;;
7179;SDS011;3631;42.152;24.756;2024-03-23T11:50:36;8.25;;;6.50;;
7179;SDS011;3631;42.152;24.756;2024-03-23T11:53:06;6.83;;;6.13;;
7179;SDS011;3631;42.152;24.756;2024-03-23T11:55:42;8.00;;;6.15;;
7179;SDS011;3631;42.152;24.756;2024-03-23T11:58:11;8.05;;;5.97;;
7179;SDS011;3631;42.152;24.756;2024-03-23T12:00:38;6.22;;;5.63;;
7179;SDS011;3631;42.152;24.756;2024-03-23T12:03:05;5.97;;;5.47;;
7179;SDS011;3631;42.152;24.756;2024-03-23T12:05:32;6.97;;;6.13;;
7179;SDS011;3631;42.152;24.756;2024-03-23T12:08:18;7.23;;;5.50;;
7179;SDS011;3631;42.152;24.756;2024-03-23T12:10:47;6.67;;;6.00;;
7179;SDS011;3631;42.152;24.756;2024-03-23T12:13:16;10.93;;;6.38;;
7179;SDS011;3631;42.152;24.756;2024-03-23T12:15:44;5.60;;;5.20;;
7179;SDS011;3631;42.152;24.756;2024-03-23T12:18:11;5.97;;;5.38;;
7179;SDS011;3631;42.152;24.756;2024-03-23T12:20:38;6.23;;;5.63;;
7179;SDS011;3631;42.152;24.756;2024-03-23T12:23:05;5.97;;;5.30;;
7179;SDS011;3631;42.152;24.756;2024-03-23T12:25:32;5.88;;;4.90;;
7179;SDS011;3631;42.152;24.756;2024-03-23T12:27:59;5.63;;;5.13;;
7179;SDS011;3631;42.152;24.756;2024-03-23T12:30:27;5.95;;;5.22;;
7179;SDS011;3631;42.152;24.756;2024-03-23T12:32:53;6.95;;;5.38;;
7179;SDS011;3631;42.152;24.756;2024-03-23T12:35:20;5.00;;;4.60;;
7179;SDS011;3631;42.152;24.756;2024-03-23T12:37:46;10.43;;;6.10;;
7179;SDS011;3631;42.152;24.756;2024-03-23T12:40:14;13.93;;;7.55;;
7179;SDS011;3631;42.152;24.756;2024-03-23T12:42:40;7.93;;;5.63;;
7179;SDS011;3631;42.152;24.756;2024-03-23T12:45:07;6.45;;;5.75;;
7179;SDS011;3631;42.152;24.756;2024-03-23T12:47:35;9.35;;;5.55;;
7179;SDS011;3631;42.152;24.756;2024-03-23T12:50:01;4.82;;;4.30;;
7179;SDS011;3631;42.152;24.756;2024-03-23T12:52:28;5.68;;;4.97;;
7179;SDS011;3631;42.152;24.756;2024-03-23T12:54:55;5.22;;;4.80;;
7179;SDS011;3631;42.152;24.756;2024-03-23T12:57:22;6.70;;;5.32;;
7179;SDS011;3631;42.152;24.756;2024-03-23T12:59:50;7.00;;;5.17;;
7179;SDS011;3631;42.152;24.756;2024-03-23T13:02:17;5.27;;;4.80;;
7179;SDS011;3631;42.152;24.756;2024-03-23T13:04:49;5.23;;;4.50;;
7179;SDS011;3631;42.152;24.756;2024-03-23T13:07:15;4.35;;;4.05;;
7179;SDS011;3631;42.152;24.756;2024-03-23T13:09:42;4.97;;;4.60;;
7179;SDS011;3631;42.152;24.756;2024-03-23T13:12:08;8.43;;;4.50;;
7179;SDS011;3631;42.152;24.756;2024-03-23T13:14:35;5.70;;;4.90;;
7179;SDS011;3631;42.152;24.756;2024-03-23T13:17:01;5.38;;;4.88;;
7179;SDS011;3631;42.152;24.756;2024-03-23T13:19:29;8.37;;;5.20;;
7179;SDS011;3631;42.152;24.756;2024-03-23T13:21:57;13.97;;;7.63;;
7179;SDS011;3631;42.152;24.756;2024-03-23T13:24:25;4.80;;;4.40;;
7179;SDS011;3631;42.152;24.756;2024-03-23T13:26:51;5.30;;;4.80;;
7179;SDS011;3631;42.152;24.756;2024-03-23T13:29:19;8.20;;;7.15;;
7179;SDS011;3631;42.152;24.756;2024-03-23T13:31:45;9.13;;;6.13;;
7179;SDS011;3631;42.152;24.756;2024-03-23T13:34:13;8.15;;;7.35;;
7179;SDS011;3631;42.152;24.756;2024-03-23T13:36:40;10.80;;;8.23;;
7179;SDS011;3631;42.152;24.756;2024-03-23T13:39:09;11.05;;;8.38;;
7179;SDS011;3631;42.152;24.756;2024-03-23T13:41:37;11.63;;;10.43;;
7179;SDS011;3631;42.152;24.756;2024-03-23T13:44:05;13.97;;;11.83;;
7179;SDS011;3631;42.152;24.756;2024-03-23T13:46:32;14.45;;;11.68;;
7179;SDS011;3631;42.152;24.756;2024-03-23T13:48:58;15.20;;;11.33;;
7179;SDS011;3631;42.152;24.756;2024-03-23T13:51:25;16.88;;;11.90;;
7179;SDS011;3631;42.152;24.756;2024-03-23T13:53:53;12.40;;;11.03;;
7179;SDS011;3631;42.152;24.756;2024-03-23T13:56:21;14.97;;;12.00;;
7179;SDS011;3631;42.152;24.756;2024-03-23T13:58:48;11.07;;;8.57;;
7179;SDS011;3631;42.152;24.756;2024-03-23T14:01:15;9.20;;;8.33;;
7179;SDS011;3631;42.152;24.756;2024-03-23T14:03:42;6.13;;;5.53;;
7179;SDS011;3631;42.152;24.756;2024-03-23T14:06:09;7.13;;;6.43;;
7179;SDS011;3631;42.152;24.756;2024-03-23T14:08:36;9.20;;;5.60;;
7179;SDS011;3631;42.152;24.756;2024-03-23T14:11:04;4.70;;;4.30;;
7179;SDS011;3631;42.152;24.756;2024-03-23T14:13:32;4.93;;;4.53;;
7179;SDS011;3631;42.152;24.756;2024-03-23T14:15:59;5.37;;;4.03;;
7179;SDS011;3631;42.152;24.756;2024-03-23T14:18:25;5.40;;;4.90;;
7179;SDS011;3631;42.152;24.756;2024-03-23T14:20:52;4.57;;;4.17;;
7179;SDS011;3631;42.152;24.756;2024-03-23T14:23:23;4.27;;;3.87;;
7179;SDS011;3631;42.152;24.756;2024-03-23T14:25:52;4.23;;;3.93;;
7179;SDS011;3631;42.152;24.756;2024-03-23T14:28:19;5.17;;;4.10;;
7179;SDS011;3631;42.152;24.756;2024-03-23T14:30:48;6.97;;;4.30;;
7179;SDS011;3631;42.152;24.756;2024-03-23T14:33:15;6.07;;;4.73;;
7179;SDS011;3631;42.152;24.756;2024-03-23T14:35:42;5.83;;;4.00;;
7179;SDS011;3631;42.152;24.756;2024-03-23T14:38:08;4.80;;;4.40;;
7179;SDS011;3631;42.152;24.756;2024-03-23T14:40:35;6.37;;;4.40;;
7179;SDS011;3631;42.152;24.756;2024-03-23T14:43:01;4.77;;;3.90;;
7179;SDS011;3631;42.152;24.756;2024-03-23T14:45:28;5.10;;;4.13;;
7179;SDS011;3631;42.152;24.756;2024-03-23T14:47:55;7.03;;;3.73;;
7179;SDS011;3631;42.152;24.756;2024-03-23T14:50:23;3.73;;;3.40;;
7179;SDS011;3631;42.152;24.756;2024-03-23T14:52:49;4.80;;;3.43;;
7179;SDS011;3631;42.152;24.756;2024-03-23T14:55:16;3.70;;;3.40;;
7179;SDS011;3631;42.152;24.756;2024-03-23T14:57:42;3.87;;;3.57;;
7179;SDS011;3631;42.152;24.756;2024-03-23T15:00:10;2.73;;;2.53;;
7179;SDS011;3631;42.152;24.756;2024-03-23T15:02:37;5.07;;;3.20;;
7179;SDS011;3631;42.152;24.756;2024-03-23T15:05:06;2.87;;;2.67;;
7179;SDS011;3631;42.152;24.756;2024-03-23T15:07:35;2.90;;;2.70;;
7179;SDS011;3631;42.152;24.756;2024-03-23T15:10:03;3.80;;;3.17;;
7179;SDS011;3631;42.152;24.756;2024-03-23T15:12:30;3.57;;;3.27;;
7179;SDS011;3631;42.152;24.756;2024-03-23T15:14:58;4.10;;;3.80;;
7179;SDS011;3631;42.152;24.756;2024-03-23T15:17:24;3.83;;;3.53;;
7179;SDS011;3631;42.152;24.756;2024-03-23T15:19:51;3.70;;;3.37;;
7179;SDS011;3631;42.152;24.756;2024-03-23T15:22:20;3.93;;;3.50;;
7179;SDS011;3631;42.152;24.756;2024-03-23T15:24:48;4.73;;;4.23;;
7179;SDS011;3631;42.152;24.756;2024-03-23T15:27:14;4.40;;;4.00;;
7179;SDS011;3631;42.152;24.756;2024-03-23T15:29:41;3.90;;;3.60;;
7179;SDS011;3631;42.152;24.756;2024-03-23T15:32:11;3.30;;;3.07;;
7179;SDS011;3631;42.152;24.756;2024-03-23T15:34:39;4.10;;;3.70;;
7179;SDS011;3631;42.152;24.756;2024-03-23T15:37:05;4.50;;;4.10;;
7179;SDS011;3631;42.152;24.756;2024-03-23T15:39:33;3.50;;;3.20;;
7179;SDS011;3631;42.152;24.756;2024-03-23T15:41:59;3.43;;;3.23;;
7179;SDS011;3631;42.152;24.756;2024-03-23T15:44:26;4.23;;;3.50;;